createdAt,value
2023-03-04T00:00:45.872Z,19.23
2023-03-04T00:03:15.518Z,16.98
2023-03-04T00:05:43.147Z,21.15
2023-03-04T00:08:10.396Z,20.23
2023-03-04T00:10:37.540Z,19.00
2023-03-04T00:13:04.704Z,19.00
2023-03-04T00:15:32.267Z,20.85
2023-03-04T00:17:59.436Z,22.38
2023-03-04T00:20:26.636Z,21.75
2023-03-04T00:22:54.095Z,23.13
2023-03-04T00:25:21.257Z,20.83
2023-03-04T00:27:48.475Z,22.25
2023-03-04T00:30:16.004Z,21.50
2023-03-04T00:32:43.320Z,20.92
2023-03-04T00:35:10.581Z,20.88
2023-03-04T00:37:37.806Z,20.92
2023-03-04T00:40:06.347Z,22.10
2023-03-04T00:45:01.689Z,20.10
2023-03-04T00:47:29.571Z,19.63
2023-03-04T00:49:57.097Z,22.23
2023-03-04T00:52:24.290Z,20.17
2023-03-04T00:54:51.440Z,20.67
2023-03-04T00:57:18.690Z,22.75
2023-03-04T00:59:47.101Z,22.05
2023-03-04T01:02:15.047Z,20.90
2023-03-04T01:04:42.941Z,21.63
2023-03-04T01:07:10.205Z,19.40
2023-03-04T01:09:37.429Z,20.40
2023-03-04T01:12:04.750Z,20.20
2023-03-04T01:14:32.247Z,22.08
2023-03-04T01:16:59.555Z,21.65
2023-03-04T01:19:26.901Z,21.38
2023-03-04T01:21:54.100Z,21.55
2023-03-04T01:24:22.782Z,23.42
2023-03-04T01:26:49.945Z,22.27
2023-03-04T01:29:17.309Z,21.52
2023-03-04T01:31:44.501Z,21.45
2023-03-04T01:34:13.204Z,21.92
2023-03-04T01:36:40.414Z,21.90
2023-03-04T01:39:07.549Z,22.48
2023-03-04T01:41:34.817Z,19.60
2023-03-04T01:44:02.970Z,21.90
2023-03-04T01:46:31.613Z,23.35
2023-03-04T01:48:59.309Z,20.77
2023-03-04T01:51:26.555Z,20.67
2023-03-04T01:53:54.901Z,22.50
2023-03-04T01:56:30.499Z,22.33
2023-03-04T01:59:15.935Z,21.63
2023-03-04T02:01:49.592Z,21.58
2023-03-04T02:04:20.452Z,21.15
2023-03-04T02:06:49.002Z,19.95
2023-03-04T02:11:47.401Z,19.63
2023-03-04T02:14:16.758Z,20.52
2023-03-04T02:16:44.459Z,20.38
2023-03-04T02:19:42.840Z,22.35
2023-03-04T02:22:10.362Z,24.38
2023-03-04T02:24:54.968Z,22.50
2023-03-04T02:27:22.464Z,23.40
2023-03-04T02:29:50.264Z,22.38
2023-03-04T02:32:17.827Z,21.67
2023-03-04T02:34:50.861Z,22.00
2023-03-04T02:37:20.173Z,21.15
2023-03-04T02:39:49.867Z,19.58
2023-03-04T02:42:18.692Z,22.40
2023-03-04T02:44:49.300Z,22.80
2023-03-04T02:47:19.570Z,20.77
2023-03-04T02:49:48.463Z,19.52
2023-03-04T02:52:23.064Z,20.48
2023-03-04T02:54:50.535Z,21.90
2023-03-04T02:57:18.436Z,22.35
2023-03-04T02:59:49.430Z,22.42
2023-03-04T03:02:20.964Z,21.00
2023-03-04T03:04:48.361Z,22.45
2023-03-04T03:07:18.586Z,20.38
2023-03-04T03:09:45.748Z,22.23
2023-03-04T03:12:13.872Z,22.35
2023-03-04T03:14:41.327Z,22.23
2023-03-04T03:17:11.237Z,21.67
2023-03-04T03:19:38.428Z,23.27
2023-03-04T03:22:07.730Z,21.65
2023-03-04T03:24:35.057Z,20.45
2023-03-04T03:27:02.836Z,21.88
2023-03-04T03:29:30.542Z,18.40
2023-03-04T03:31:57.911Z,21.92
2023-03-04T03:34:25.243Z,21.50
2023-03-04T03:36:52.543Z,21.80
2023-03-04T03:39:20.034Z,20.98
2023-03-04T03:41:47.210Z,20.08
2023-03-04T03:44:15.625Z,19.45
2023-03-04T03:46:42.763Z,19.05
2023-03-04T03:49:09.916Z,21.55
2023-03-04T03:51:37.250Z,19.52
2023-03-04T03:54:04.565Z,19.63
2023-03-04T03:56:31.911Z,21.80
2023-03-04T03:59:00.344Z,21.55
2023-03-04T04:01:27.562Z,19.63
2023-03-04T04:03:54.871Z,20.35
2023-03-04T04:06:22.018Z,20.77
2023-03-04T04:08:49.166Z,19.98
2023-03-04T04:11:16.494Z,21.08
2023-03-04T04:13:43.631Z,17.90
2023-03-04T04:16:11.743Z,20.30
2023-03-04T04:18:39.153Z,21.23
2023-03-04T04:21:06.791Z,21.20
2023-03-04T04:23:34.002Z,19.98
2023-03-04T04:26:01.272Z,17.90
2023-03-04T04:28:28.465Z,20.80
2023-03-04T04:30:55.693Z,20.98
2023-03-04T04:33:22.869Z,20.48
2023-03-04T04:35:50.034Z,21.23
2023-03-04T04:38:17.521Z,21.65
2023-03-04T04:40:44.965Z,20.92
2023-03-04T04:43:12.167Z,23.23
2023-03-04T04:45:39.334Z,20.77
2023-03-04T04:48:06.795Z,20.48
2023-03-04T04:50:33.940Z,20.13
2023-03-04T04:53:01.154Z,18.85
2023-03-04T04:55:28.369Z,19.17
2023-03-04T04:57:55.671Z,19.50
2023-03-04T05:00:22.881Z,20.33
2023-03-04T05:02:50.285Z,19.90
2023-03-04T05:05:17.985Z,17.20
2023-03-04T05:07:45.136Z,19.42
2023-03-04T05:10:12.290Z,19.08
2023-03-04T05:12:39.482Z,17.60
2023-03-04T05:15:07.551Z,17.95
2023-03-04T05:17:34.664Z,19.75
2023-03-04T05:20:02.202Z,18.88
2023-03-04T05:22:29.365Z,19.65
2023-03-04T05:24:57.205Z,17.88
2023-03-04T05:27:24.384Z,18.92
2023-03-04T05:29:51.785Z,17.95
2023-03-04T05:32:18.973Z,18.05
2023-03-04T05:34:46.127Z,16.60
2023-03-04T05:37:13.267Z,18.33
2023-03-04T05:39:40.414Z,19.15
2023-03-04T05:42:07.789Z,17.25
2023-03-04T05:44:34.916Z,18.83
2023-03-04T05:47:02.052Z,19.00
2023-03-04T05:49:31.100Z,17.48
2023-03-04T05:51:58.266Z,18.33
2023-03-04T05:54:25.420Z,19.40
2023-03-04T05:56:52.701Z,18.55
2023-03-04T05:59:20.868Z,17.73
2023-03-04T06:01:48.645Z,18.50
2023-03-04T06:04:16.305Z,18.92
2023-03-04T06:06:43.474Z,18.80
2023-03-04T06:09:10.739Z,18.77
2023-03-04T06:11:37.984Z,18.40
2023-03-04T06:14:05.693Z,18.73
2023-03-04T06:16:33.434Z,18.23
2023-03-04T06:19:00.582Z,16.58
2023-03-04T06:21:27.797Z,19.42
2023-03-04T06:23:55.184Z,19.55
2023-03-04T06:26:22.426Z,20.90
2023-03-04T06:28:49.921Z,19.23
2023-03-04T06:31:17.399Z,18.13
2023-03-04T06:33:46.137Z,18.15
2023-03-04T06:36:13.301Z,17.58
2023-03-04T06:38:40.508Z,17.50
2023-03-04T06:41:11.599Z,18.85
2023-03-04T06:43:39.434Z,16.33
2023-03-04T06:46:08.497Z,19.95
2023-03-04T06:48:35.918Z,19.17
2023-03-04T06:51:11.577Z,20.13
2023-03-04T06:53:40.675Z,20.13
2023-03-04T06:56:10.993Z,18.90
2023-03-04T06:58:38.546Z,20.52
2023-03-04T07:01:21.533Z,19.65
2023-03-04T07:03:51.153Z,19.70
2023-03-04T07:06:24.389Z,18.80
2023-03-04T07:08:52.576Z,20.25
2023-03-04T07:11:22.031Z,20.08
2023-03-04T07:13:50.287Z,19.00
2023-03-04T07:16:22.506Z,20.65
2023-03-04T07:18:50.333Z,19.25
2023-03-04T07:21:18.727Z,19.95
2023-03-04T07:23:47.171Z,19.05
2023-03-04T07:26:14.550Z,20.25
2023-03-04T07:28:42.787Z,20.23
2023-03-04T07:31:24.878Z,20.00
2023-03-04T07:33:52.443Z,19.58
2023-03-04T07:36:20.011Z,19.17
2023-03-04T07:38:50.811Z,21.45
2023-03-04T07:41:18.871Z,20.73
2023-03-04T07:43:46.209Z,21.10
2023-03-04T07:46:14.013Z,20.42
2023-03-04T07:48:41.414Z,18.67
2023-03-04T07:51:15.216Z,21.67
2023-03-04T07:53:50.482Z,20.25
2023-03-04T07:56:26.369Z,20.25
2023-03-04T07:58:53.762Z,20.50
2023-03-04T08:01:27.157Z,20.60
2023-03-04T08:03:54.776Z,20.42
2023-03-04T08:06:23.300Z,22.02
2023-03-04T08:09:00.857Z,20.77
2023-03-04T08:11:30.485Z,20.42
2023-03-04T08:13:58.199Z,19.45
2023-03-04T08:16:26.319Z,20.67
2023-03-04T08:18:58.090Z,22.52
2023-03-04T08:21:28.364Z,19.60
2023-03-04T08:23:59.845Z,21.77
2023-03-04T08:26:42.745Z,21.15
2023-03-04T08:29:16.085Z,23.27
2023-03-04T08:31:48.701Z,19.77
2023-03-04T08:34:17.502Z,17.67
2023-03-04T08:36:44.759Z,20.33
2023-03-04T08:39:15.560Z,19.35
2023-03-04T08:41:43.788Z,17.33
2023-03-04T08:44:11.455Z,19.92
2023-03-04T08:46:41.871Z,19.92
2023-03-04T08:49:14.506Z,19.92
2023-03-04T08:51:42.854Z,20.13
2023-03-04T08:54:10.046Z,19.08
2023-03-04T08:56:37.224Z,18.85
2023-03-04T08:59:04.602Z,19.27
2023-03-04T09:01:31.835Z,20.88
2023-03-04T09:03:59.065Z,22.05
2023-03-04T09:06:26.324Z,20.55
2023-03-04T09:08:53.547Z,21.90
2023-03-04T09:11:20.836Z,20.67
2023-03-04T09:13:48.226Z,19.60
2023-03-04T09:16:15.790Z,21.65
2023-03-04T09:18:43.923Z,20.48
2023-03-04T09:21:11.902Z,20.65
2023-03-04T09:23:39.572Z,22.15
2023-03-04T09:26:24.661Z,22.05
2023-03-04T09:29:00.912Z,20.67
2023-03-04T09:31:29.323Z,21.23
2023-03-04T09:33:59.419Z,21.90
2023-03-04T09:36:27.284Z,24.77
2023-03-04T09:38:55.274Z,23.52
2023-03-04T09:41:39.473Z,21.10
2023-03-04T09:44:21.453Z,23.38
2023-03-04T09:46:50.752Z,24.02
2023-03-04T09:49:21.010Z,25.08
2023-03-04T09:52:40.622Z,22.90
2023-03-04T09:55:39.321Z,22.75
2023-03-04T09:58:31.255Z,23.85
2023-03-04T10:01:05.506Z,24.60
2023-03-04T10:04:03.394Z,27.33
2023-03-04T10:06:31.913Z,23.88
2023-03-04T10:09:25.601Z,24.77
2023-03-04T10:12:10.154Z,23.13
2023-03-04T10:14:51.314Z,27.38
2023-03-04T10:17:38.059Z,24.45
2023-03-04T10:20:26.956Z,21.92
2023-03-04T10:23:09.824Z,26.58
2023-03-04T10:25:44.591Z,25.52
2023-03-04T10:28:28.029Z,25.00
2023-03-04T10:31:39.574Z,23.65
2023-03-04T10:34:08.928Z,22.98
2023-03-04T10:37:02.370Z,23.75
2023-03-04T10:39:45.977Z,22.95
2023-03-04T10:42:16.277Z,23.60
2023-03-04T10:45:00.507Z,24.17
2023-03-04T10:47:32.695Z,27.17
2023-03-04T10:50:05.342Z,25.77
2023-03-04T10:52:51.303Z,26.02
2023-03-04T10:55:44.197Z,17.75
2023-03-04T11:01:05.526Z,25.17
2023-03-04T11:03:47.947Z,25.58
2023-03-04T11:06:22.858Z,23.55
2023-03-04T11:08:59.730Z,21.33
2023-03-04T11:11:44.752Z,27.02
2023-03-04T11:14:28.786Z,26.05
2023-03-04T11:17:03.897Z,22.52
2023-03-04T11:19:41.757Z,25.08
2023-03-04T11:22:15.115Z,24.02
2023-03-04T11:24:43.924Z,26.23
2023-03-04T11:27:49.608Z,24.70
2023-03-04T11:30:41.869Z,24.67
2023-03-04T11:33:28.376Z,23.23
2023-03-04T11:36:22.373Z,24.25
2023-03-04T11:38:51.714Z,24.65
2023-03-04T11:41:45.795Z,24.63
2023-03-04T11:44:14.447Z,21.88
2023-03-04T11:47:27.920Z,26.00
2023-03-04T11:50:29.157Z,27.23
2023-03-04T11:53:17.532Z,25.23
2023-03-04T11:56:16.903Z,26.05
2023-03-04T11:59:24.560Z,25.48
2023-03-04T12:02:20.464Z,20.73
2023-03-04T12:05:30.516Z,25.77
2023-03-04T12:08:15.404Z,23.30
2023-03-04T12:11:04.231Z,24.05
2023-03-04T12:13:52.276Z,24.00
2023-03-04T12:17:02.414Z,21.27
2023-03-04T12:20:15.196Z,18.50
2023-03-04T12:22:51.649Z,23.88
2023-03-04T12:26:03.402Z,25.45
2023-03-04T12:28:55.090Z,26.60
2023-03-04T12:31:41.243Z,24.25
2023-03-04T12:34:52.666Z,25.40
2023-03-04T12:37:38.821Z,16.52
2023-03-04T12:40:37.106Z,21.70
2023-03-04T12:44:00.221Z,24.58
2023-03-04T12:46:55.877Z,23.05
2023-03-04T12:49:38.053Z,22.33
2023-03-04T12:52:30.198Z,22.77
2023-03-04T12:55:02.981Z,24.80
2023-03-04T12:57:31.776Z,22.95
2023-03-04T13:00:44.332Z,24.15
2023-03-04T13:04:24.127Z,22.80
2023-03-04T13:07:27.244Z,22.42
2023-03-04T13:10:14.477Z,20.83
2023-03-04T13:12:57.414Z,19.80
2023-03-04T13:15:24.661Z,21.23
2023-03-04T13:18:34.911Z,20.77
2023-03-04T13:21:14.152Z,21.05
2023-03-04T13:23:42.400Z,29.08
2023-03-04T13:26:34.563Z,21.10
2023-03-04T13:29:13.921Z,19.88
2023-03-04T13:32:11.222Z,20.70
2023-03-04T13:34:52.858Z,18.88
2023-03-04T13:37:35.831Z,20.92
2023-03-04T13:40:23.797Z,20.05
2023-03-04T13:42:51.402Z,18.35
2023-03-04T13:45:44.903Z,20.73
2023-03-04T13:48:33.179Z,19.77
2023-03-04T13:51:00.847Z,18.13
2023-03-04T13:53:58.963Z,17.67
2023-03-04T13:56:46.310Z,21.20
2023-03-04T13:59:41.925Z,20.58
2023-03-04T14:02:19.994Z,19.92
2023-03-04T14:05:00.431Z,16.67
2023-03-04T14:07:37.062Z,18.80
2023-03-04T14:10:13.187Z,17.38
2023-03-04T14:12:59.140Z,18.40
2023-03-04T14:15:31.911Z,20.42
2023-03-04T14:18:03.561Z,16.75
2023-03-04T14:20:39.389Z,16.40
2023-03-04T14:23:31.272Z,17.45
2023-03-04T14:26:17.620Z,19.33
2023-03-04T14:28:52.537Z,17.83
2023-03-04T14:31:29.923Z,17.58
2023-03-04T14:34:02.275Z,18.58
2023-03-04T14:36:34.049Z,20.42
2023-03-04T14:39:06.806Z,17.20
2023-03-04T14:41:45.747Z,19.10
2023-03-04T14:44:49.108Z,17.45
2023-03-04T14:47:32.793Z,18.20
2023-03-04T14:50:00.233Z,15.48
2023-03-04T14:52:41.647Z,16.85
2023-03-04T14:55:14.997Z,17.20
2023-03-04T14:57:47.336Z,16.05
2023-03-04T15:00:21.525Z,18.02
2023-03-04T15:02:59.796Z,17.20
2023-03-04T15:05:34.748Z,18.83
2023-03-04T15:08:15.608Z,17.70
2023-03-04T15:10:42.948Z,18.23
2023-03-04T15:13:10.638Z,16.45
2023-03-04T15:15:47.001Z,17.73
2023-03-04T15:18:29.915Z,16.08
2023-03-04T15:21:20.364Z,18.08
2023-03-04T15:23:47.844Z,16.25
2023-03-04T15:26:15.175Z,17.10
2023-03-04T15:28:43.225Z,16.45
2023-03-04T15:31:23.146Z,15.88
2023-03-04T15:33:50.615Z,14.50
2023-03-04T15:36:22.834Z,16.55
2023-03-04T15:38:53.323Z,17.88
2023-03-04T15:41:26.862Z,17.27
2023-03-04T15:43:57.617Z,16.95
2023-03-04T15:46:24.844Z,16.88
2023-03-04T15:48:52.182Z,16.70
2023-03-04T15:51:24.607Z,18.05
2023-03-04T15:53:55.965Z,16.42
2023-03-04T15:56:30.201Z,17.55
2023-03-04T16:01:38.366Z,15.98
2023-03-04T16:04:05.804Z,17.00
2023-03-04T16:06:33.566Z,17.63
2023-03-04T16:09:01.345Z,16.67
2023-03-04T16:11:32.807Z,14.73
2023-03-04T16:13:59.936Z,16.80
2023-03-04T16:16:27.130Z,17.15
2023-03-04T16:18:54.334Z,17.08
2023-03-04T16:21:24.792Z,17.03
2023-03-04T16:23:54.551Z,17.42
2023-03-04T16:26:30.243Z,16.63
2023-03-04T16:28:57.402Z,15.60
2023-03-04T16:31:24.573Z,16.60
2023-03-04T16:33:51.800Z,16.52
2023-03-04T16:36:27.214Z,16.17
2023-03-04T16:39:03.947Z,15.68
2023-03-04T16:41:31.237Z,15.48
2023-03-04T16:44:01.991Z,16.40
2023-03-04T16:46:30.147Z,17.52
2023-03-04T16:48:57.418Z,17.40
2023-03-04T16:51:24.854Z,17.35
2023-03-04T16:54:02.516Z,17.63
2023-03-04T16:56:29.682Z,18.02
2023-03-04T16:58:56.802Z,18.42
2023-03-04T17:01:29.058Z,17.40
2023-03-04T17:03:56.837Z,18.13
2023-03-04T17:06:24.905Z,18.33
2023-03-04T17:08:52.749Z,16.58
2023-03-04T17:11:23.380Z,16.80
2023-03-04T17:13:51.637Z,16.33
2023-03-04T17:18:46.669Z,16.40
2023-03-04T17:21:19.641Z,14.43
2023-03-04T17:23:47.278Z,17.20
2023-03-04T17:26:16.585Z,16.90
2023-03-04T17:28:43.832Z,17.02
2023-03-04T17:31:18.812Z,17.35
2023-03-04T17:33:47.316Z,17.10
2023-03-04T17:36:17.022Z,16.55
2023-03-04T17:38:44.558Z,18.27
2023-03-04T17:41:17.480Z,18.13
2023-03-04T17:43:54.642Z,15.77
2023-03-04T17:46:26.580Z,18.55
2023-03-04T17:48:59.010Z,18.02
2023-03-04T17:51:38.998Z,15.93
2023-03-04T17:54:08.681Z,18.25
2023-03-04T17:56:39.297Z,19.02
2023-03-04T17:59:15.628Z,17.67
2023-03-04T18:01:45.196Z,18.52
2023-03-04T18:04:14.385Z,19.02
2023-03-04T18:06:42.114Z,18.88
2023-03-04T18:09:10.077Z,18.58
2023-03-04T18:11:41.442Z,17.10
2023-03-04T18:14:09.334Z,17.58
2023-03-04T18:16:36.616Z,22.13
2023-03-04T18:19:04.647Z,27.25
2023-03-04T18:21:32.641Z,24.30
2023-03-04T18:23:59.777Z,23.42
2023-03-04T18:26:28.084Z,21.95
2023-03-04T18:28:56.701Z,24.23
2023-03-04T18:31:31.567Z,21.80
2023-03-04T18:34:03.775Z,22.52
2023-03-04T18:36:31.127Z,21.33
2023-03-04T18:38:59.429Z,19.50
2023-03-04T18:43:55.715Z,20.15
2023-03-04T18:46:53.882Z,19.88
2023-03-04T18:49:21.652Z,19.98
2023-03-04T18:51:49.153Z,20.55
2023-03-04T18:54:16.479Z,19.85
2023-03-04T18:56:57.243Z,20.00
2023-03-04T19:02:20.837Z,19.02
2023-03-04T19:04:49.981Z,18.88
2023-03-04T19:07:17.194Z,19.10
2023-03-04T19:09:44.437Z,19.40
2023-03-04T19:12:12.200Z,21.35
2023-03-04T19:14:39.356Z,20.73
2023-03-04T19:17:07.687Z,20.98
2023-03-04T19:19:36.360Z,20.23
2023-03-04T19:22:04.161Z,21.05
2023-03-04T19:24:31.365Z,20.67
2023-03-04T19:26:58.524Z,20.35
2023-03-04T19:29:25.807Z,24.35
2023-03-04T19:31:53.049Z,21.35
2023-03-04T19:34:20.218Z,21.65
2023-03-04T19:36:47.536Z,19.65
2023-03-04T19:39:15.662Z,22.08
2023-03-04T19:41:42.937Z,18.48
2023-03-04T19:44:10.412Z,20.63
2023-03-04T19:46:37.558Z,18.55
2023-03-04T19:49:05.757Z,18.10
2023-03-04T19:51:33.029Z,20.70
2023-03-04T19:54:00.739Z,22.25
2023-03-04T19:56:28.396Z,22.45
2023-03-04T19:58:57.658Z,22.02
2023-03-04T20:01:32.774Z,21.73
2023-03-04T20:04:14.507Z,19.50
2023-03-04T20:06:49.510Z,20.98
2023-03-04T20:09:19.388Z,24.85
2023-03-04T20:11:57.579Z,20.48
2023-03-04T20:14:28.427Z,20.25
2023-03-04T20:17:03.079Z,19.55
2023-03-04T20:21:58.801Z,19.13
2023-03-04T20:24:26.618Z,18.33
2023-03-04T20:26:53.867Z,19.20
2023-03-04T20:29:21.239Z,19.42
2023-03-04T20:31:49.071Z,18.63
2023-03-04T20:34:16.487Z,18.67
2023-03-04T20:36:43.641Z,18.90
2023-03-04T20:39:26.987Z,20.52
2023-03-04T20:41:58.020Z,19.08
2023-03-04T20:44:25.432Z,20.92
2023-03-04T20:46:52.852Z,21.20
2023-03-04T20:49:27.356Z,24.23
2023-03-04T20:52:02.928Z,21.98
2023-03-04T20:54:31.008Z,24.10
2023-03-04T20:56:58.495Z,22.30
2023-03-04T20:59:25.952Z,24.58
2023-03-04T21:01:53.649Z,23.45
2023-03-04T21:04:21.237Z,21.63
2023-03-04T21:06:50.656Z,20.02
2023-03-04T21:09:22.073Z,23.63
2023-03-04T21:11:51.391Z,21.50
2023-03-04T21:14:29.104Z,20.85
2023-03-04T21:17:02.295Z,22.83
2023-03-04T21:19:34.275Z,23.67
2023-03-04T21:22:03.454Z,22.70
2023-03-04T21:24:35.730Z,24.00
2023-03-04T21:27:04.568Z,24.10
2023-03-04T21:29:31.921Z,29.02
2023-03-04T21:32:22.371Z,26.35
2023-03-04T21:34:52.027Z,24.95
2023-03-04T21:37:22.082Z,22.40
2023-03-04T21:39:49.434Z,24.23
2023-03-04T21:42:16.788Z,24.77
2023-03-04T21:44:51.965Z,24.17
2023-03-04T21:47:50.480Z,23.42
2023-03-04T21:50:17.923Z,25.10
2023-03-04T21:52:45.092Z,25.33
2023-03-04T21:55:12.604Z,23.33
2023-03-04T21:57:39.730Z,21.92
2023-03-04T22:00:08.301Z,23.58
2023-03-04T22:02:41.127Z,23.75
2023-03-04T22:05:08.614Z,24.65
2023-03-04T22:07:36.055Z,24.30
2023-03-04T22:10:06.591Z,23.20
2023-03-04T22:12:33.804Z,24.50
2023-03-04T22:15:01.012Z,25.15
2023-03-04T22:17:28.510Z,23.50
2023-03-04T22:19:55.822Z,25.58
2023-03-04T22:22:22.941Z,25.58
2023-03-04T22:24:51.721Z,24.65
2023-03-04T22:27:20.111Z,24.80
2023-03-04T22:29:47.389Z,25.75
2023-03-04T22:32:16.948Z,25.13
2023-03-04T22:34:44.123Z,27.38
2023-03-04T22:37:11.242Z,25.35
2023-03-04T22:39:38.385Z,27.63
2023-03-04T22:42:05.933Z,27.83
2023-03-04T22:44:34.377Z,26.50
2023-03-04T22:47:01.492Z,27.13
2023-03-04T22:49:28.724Z,27.42
2023-03-04T22:51:55.898Z,25.15
2023-03-04T22:54:23.030Z,28.05
2023-03-04T22:56:50.283Z,26.77
2023-03-04T22:59:17.544Z,27.98
2023-03-04T23:01:44.761Z,26.88
2023-03-04T23:04:11.898Z,24.70
2023-03-04T23:06:39.276Z,26.50
2023-03-04T23:09:06.725Z,23.77
2023-03-04T23:11:35.737Z,23.98
2023-03-04T23:14:06.876Z,25.30
2023-03-04T23:16:38.569Z,24.80
2023-03-04T23:19:06.813Z,25.58
2023-03-04T23:21:35.136Z,27.20
2023-03-04T23:24:04.403Z,26.83
2023-03-04T23:26:38.711Z,29.20
2023-03-04T23:29:09.889Z,28.35
2023-03-04T23:31:37.416Z,27.63
2023-03-04T23:34:06.873Z,26.75
2023-03-04T23:36:37.363Z,27.10
2023-03-04T23:39:07.487Z,27.23
2023-03-04T23:41:35.686Z,27.95
2023-03-04T23:44:04.473Z,29.20
2023-03-04T23:46:32.503Z,31.50
2023-03-04T23:49:00.050Z,31.60
2023-03-04T23:51:29.984Z,32.90
2023-03-04T23:53:58.357Z,32.10
2023-03-04T23:56:29.831Z,31.73
2023-03-04T23:58:59.201Z,30.80
